LIMF/TRN METAR and TAF weather

Enter ICAO airport designator
Station Type Date Time Source
LIMF METAR 2019/10/14 05:20 UTC NOAA

LIMF 140520Z VRB02KT 9999 BKN060 14/11 Q1023


Station Type Date Time Source
LIMF Decoded METAR 2019/10/14 05:20 UTC NOAA

Torino / Caselle, Italy (LIMF) 45-13N 007-39E 287M
Oct 14, 2019 - 01:20 AM EDT / 2019.10.14 0520 UTC
Wind: Variable at 2 MPH (2 KT):0
Visibility: greater than 7 mile(s):0
Sky conditions: mostly cloudy
Temperature: 57 F (14 C)
Dew Point: 51 F (11 C)
Relative Humidity: 82%
Pressure (altimeter): 30.21 in. Hg (1023 hPa)
ob: LIMF 140520Z VRB02KT 9999 BKN060 14/11 Q1023
cycle: 5

Station Type Date Time Source
LIMF TAF 2019/10/14 06:25 UTC NOAA

TAF LIMF 140500Z 1406/1506 VRB05KT 7000 SCT020 BKN050
BECMG 1500/1503 RA

Example: see airport list